AZI624 LGTS-LGHI
Flight info
| Callsign | AZI624 |
|---|---|
| Flight time | 0h 42m |
| Altitude | 25000 |
| Route | TSL UM603 PEREN UN128 LMO UL618 DESUG |
| Aircraft | B463/M-SDFGIRWY/LB1 |
Departure
| Time | 2026-04-21 17:41 |
|---|---|
| Airport | Thessaloniki Macedonia International Airport (LGTS) |
Arrival
| Time | 2026-04-21 18:24 |
|---|---|
| Airport | Chios Island National Airport (LGHI) |
| Time | Latitude | Longitude | Altitude | Speed | Heading |
|---|---|---|---|---|---|
| 2026-04-21 16:55 | 40.52313 | 22.97579 | 25 ft | 0 kts | 44° |
| 2026-04-21 17:29 | 40.52301 | 22.97564 | 11 ft | 2 kts | 44° |
| 2026-04-21 17:29 | 40.52289 | 22.97549 | 36 ft | 2 kts | 43° |
| 2026-04-21 17:30 | 40.52277 | 22.97534 | 28 ft | 2 kts | 44° |
| 2026-04-21 17:30 | 40.52271 | 22.97517 | 28 ft | 2 kts | 127° |
| 2026-04-21 17:30 | 40.52280 | 22.97505 | 25 ft | 1 kts | 134° |
| 2026-04-21 17:30 | 40.52280 | 22.97504 | 25 ft | 0 kts | 134° |
| 2026-04-21 17:34 | 40.52275 | 22.97511 | 27 ft | 3 kts | 134° |
| 2026-04-21 17:35 | 40.52244 | 22.97550 | 26 ft | 9 kts | 136° |
| 2026-04-21 17:35 | 40.52187 | 22.97623 | 25 ft | 13 kts | 136° |
| 2026-04-21 17:35 | 40.52122 | 22.97686 | 25 ft | 11 kts | 135° |
| 2026-04-21 17:35 | 40.52068 | 22.97753 | 25 ft | 11 kts | 136° |
| 2026-04-21 17:36 | 40.52008 | 22.97830 | 25 ft | 13 kts | 123° |
| 2026-04-21 17:36 | 40.51980 | 22.97955 | 25 ft | 15 kts | 104° |
| 2026-04-21 17:36 | 40.51953 | 22.98101 | 25 ft | 18 kts | 104° |
| 2026-04-21 17:36 | 40.51922 | 22.98267 | 25 ft | 20 kts | 103° |
| 2026-04-21 17:37 | 40.51889 | 22.98446 | 27 ft | 20 kts | 104° |
| 2026-04-21 17:37 | 40.51857 | 22.98611 | 26 ft | 16 kts | 104° |
| 2026-04-21 17:37 | 40.51843 | 22.98684 | 26 ft | 9 kts | 117° |
| 2026-04-21 17:37 | 40.51793 | 22.98692 | 25 ft | 2 kts | 192° |
| 2026-04-21 17:38 | 40.51790 | 22.98691 | 25 ft | 0 kts | 192° |
| 2026-04-21 17:39 | 40.51770 | 22.98685 | 25 ft | 6 kts | 194° |
| 2026-04-21 17:39 | 40.51714 | 22.98667 | 25 ft | 10 kts | 193° |
| 2026-04-21 17:40 | 40.51683 | 22.98637 | 26 ft | 5 kts | 274° |
| 2026-04-21 17:40 | 40.51697 | 22.98563 | 24 ft | 21 kts | 284° |
| 2026-04-21 17:40 | 40.51790 | 22.98069 | 27 ft | 88 kts | 284° |
| 2026-04-21 17:40 | 40.51981 | 22.97041 | 54 ft | 134 kts | 283° |
| 2026-04-21 17:41 | 40.52174 | 22.95816 | 432 ft | 138 kts | 283° |
| 2026-04-21 17:41 | 40.52380 | 22.94581 | 914 ft | 142 kts | 284° |
| 2026-04-21 17:41 | 40.52600 | 22.93267 | 1262 ft | 152 kts | 283° |
| 2026-04-21 17:41 | 40.52824 | 22.91914 | 1747 ft | 152 kts | 285° |
| 2026-04-21 17:42 | 40.53125 | 22.90530 | 2038 ft | 165 kts | 288° |
| 2026-04-21 17:42 | 40.53513 | 22.89027 | 2239 ft | 182 kts | 290° |
| 2026-04-21 17:42 | 40.53903 | 22.87373 | 2464 ft | 195 kts | 283° |
| 2026-04-21 17:42 | 40.53987 | 22.85530 | 2753 ft | 213 kts | 264° |
| 2026-04-21 17:43 | 40.53419 | 22.83655 | 3024 ft | 233 kts | 230° |
| 2026-04-21 17:43 | 40.52300 | 22.82099 | 3679 ft | 231 kts | 226° |
| 2026-04-21 17:43 | 40.51183 | 22.80632 | 4421 ft | 230 kts | 225° |
| 2026-04-21 17:43 | 40.50011 | 22.79188 | 5125 ft | 232 kts | 224° |
| 2026-04-21 17:44 | 40.48807 | 22.77776 | 5823 ft | 232 kts | 224° |
| 2026-04-21 17:44 | 40.47580 | 22.76384 | 6523 ft | 233 kts | 224° |
| 2026-04-21 17:44 | 40.46320 | 22.75024 | 7153 ft | 237 kts | 217° |
| 2026-04-21 17:44 | 40.44727 | 22.74391 | 7748 ft | 251 kts | 181° |
| 2026-04-21 17:45 | 40.43044 | 22.75127 | 8346 ft | 264 kts | 147° |
| 2026-04-21 17:45 | 40.41701 | 22.76824 | 8949 ft | 271 kts | 135° |
| 2026-04-21 17:45 | 40.40431 | 22.78679 | 9629 ft | 275 kts | 133° |
| 2026-04-21 17:45 | 40.39188 | 22.80615 | 10312 ft | 281 kts | 132° |
| 2026-04-21 17:46 | 40.37921 | 22.82658 | 10761 ft | 295 kts | 131° |
| 2026-04-21 17:46 | 40.36610 | 22.84768 | 11194 ft | 309 kts | 131° |
| 2026-04-21 17:46 | 40.35215 | 22.86991 | 11684 ft | 320 kts | 132° |
| 2026-04-21 17:46 | 40.33755 | 22.89257 | 12195 ft | 329 kts | 133° |
| 2026-04-21 17:47 | 40.32252 | 22.91564 | 12753 ft | 335 kts | 133° |
| 2026-04-21 17:47 | 40.30728 | 22.93894 | 13332 ft | 339 kts | 133° |
| 2026-04-21 17:47 | 40.29189 | 22.96252 | 13898 ft | 341 kts | 133° |
| 2026-04-21 17:47 | 40.27633 | 22.98611 | 14467 ft | 341 kts | 134° |
| 2026-04-21 17:48 | 40.26596 | 23.00157 | 14847 ft | 341 kts | 134° |
| 2026-04-21 17:48 | 40.25030 | 23.02490 | 15432 ft | 341 kts | 134° |
| 2026-04-21 17:48 | 40.23482 | 23.04838 | 16016 ft | 341 kts | 133° |
| 2026-04-21 17:48 | 40.21404 | 23.07952 | 16634 ft | 345 kts | 134° |
| 2026-04-21 17:49 | 40.20333 | 23.09546 | 16935 ft | 347 kts | 134° |
| 2026-04-21 17:49 | 40.18758 | 23.11921 | 17369 ft | 350 kts | 133° |
| 2026-04-21 17:49 | 40.17160 | 23.14349 | 17799 ft | 353 kts | 133° |
| 2026-04-21 17:49 | 40.15540 | 23.16776 | 18226 ft | 355 kts | 134° |
| 2026-04-21 17:50 | 40.13902 | 23.19208 | 18584 ft | 357 kts | 134° |
| 2026-04-21 17:50 | 40.12262 | 23.21664 | 18923 ft | 360 kts | 134° |
| 2026-04-21 17:50 | 40.10623 | 23.24147 | 19253 ft | 362 kts | 134° |
| 2026-04-21 17:50 | 40.08965 | 23.26628 | 19572 ft | 364 kts | 134° |
| 2026-04-21 17:51 | 40.07308 | 23.29082 | 19886 ft | 365 kts | 134° |
| 2026-04-21 17:51 | 40.05631 | 23.31587 | 20179 ft | 367 kts | 134° |
| 2026-04-21 17:51 | 40.03956 | 23.34119 | 20493 ft | 369 kts | 134° |
| 2026-04-21 17:51 | 40.02260 | 23.36645 | 20798 ft | 371 kts | 134° |
| 2026-04-21 17:52 | 40.00542 | 23.39179 | 21107 ft | 373 kts | 134° |
| 2026-04-21 17:52 | 39.98830 | 23.41735 | 21423 ft | 375 kts | 134° |
| 2026-04-21 17:52 | 39.97113 | 23.44317 | 21750 ft | 377 kts | 134° |
| 2026-04-21 17:52 | 39.95373 | 23.46896 | 22047 ft | 379 kts | 134° |
| 2026-04-21 17:53 | 39.93625 | 23.49480 | 22320 ft | 381 kts | 134° |
| 2026-04-21 17:53 | 39.91881 | 23.52097 | 22625 ft | 383 kts | 134° |
| 2026-04-21 17:53 | 39.90144 | 23.54671 | 22933 ft | 384 kts | 134° |
| 2026-04-21 17:53 | 39.88364 | 23.57284 | 23208 ft | 386 kts | 134° |
| 2026-04-21 17:54 | 39.86588 | 23.59928 | 23451 ft | 389 kts | 134° |
| 2026-04-21 17:54 | 39.84792 | 23.62613 | 23580 ft | 395 kts | 134° |
| 2026-04-21 17:54 | 39.82961 | 23.65310 | 23697 ft | 400 kts | 134° |
| 2026-04-21 17:54 | 39.81103 | 23.68048 | 23827 ft | 405 kts | 134° |
| 2026-04-21 17:55 | 39.79244 | 23.70818 | 24042 ft | 407 kts | 134° |
| 2026-04-21 17:55 | 39.77373 | 23.73605 | 24257 ft | 409 kts | 134° |
| 2026-04-21 17:55 | 39.75476 | 23.76390 | 24467 ft | 411 kts | 134° |
| 2026-04-21 17:55 | 39.73596 | 23.79132 | 24677 ft | 412 kts | 134° |
| 2026-04-21 17:56 | 39.71691 | 23.81949 | 24810 ft | 417 kts | 134° |
| 2026-04-21 17:56 | 39.69767 | 23.84799 | 24881 ft | 423 kts | 134° |
| 2026-04-21 17:56 | 39.67817 | 23.87691 | 24902 ft | 429 kts | 134° |
| 2026-04-21 17:56 | 39.65820 | 23.90612 | 24917 ft | 435 kts | 134° |
| 2026-04-21 17:57 | 39.63788 | 23.93563 | 24924 ft | 441 kts | 134° |
| 2026-04-21 17:57 | 39.61744 | 23.96566 | 24925 ft | 445 kts | 134° |
| 2026-04-21 17:57 | 39.59689 | 23.99587 | 24928 ft | 448 kts | 134° |
| 2026-04-21 17:57 | 39.57623 | 24.02627 | 24928 ft | 450 kts | 134° |
| 2026-04-21 17:58 | 39.55539 | 24.05686 | 24925 ft | 452 kts | 134° |
| 2026-04-21 17:58 | 39.53439 | 24.08753 | 24923 ft | 454 kts | 134° |
| 2026-04-21 17:58 | 39.51349 | 24.11761 | 24926 ft | 455 kts | 134° |
| 2026-04-21 17:58 | 39.49242 | 24.14835 | 24927 ft | 454 kts | 134° |
| 2026-04-21 17:59 | 39.47143 | 24.17900 | 24921 ft | 453 kts | 134° |
| 2026-04-21 17:59 | 39.45056 | 24.20960 | 24921 ft | 453 kts | 134° |
| 2026-04-21 17:59 | 39.42957 | 24.23996 | 24920 ft | 452 kts | 135° |
| 2026-04-21 17:59 | 39.40855 | 24.27012 | 24923 ft | 451 kts | 134° |
| 2026-04-21 18:00 | 39.38774 | 24.30043 | 24919 ft | 451 kts | 134° |
| 2026-04-21 18:00 | 39.36692 | 24.33081 | 24919 ft | 451 kts | 134° |
| 2026-04-21 18:00 | 39.34629 | 24.36066 | 24919 ft | 451 kts | 135° |
| 2026-04-21 18:00 | 39.32527 | 24.39066 | 24921 ft | 450 kts | 134° |
| 2026-04-21 18:01 | 39.30441 | 24.42087 | 24916 ft | 450 kts | 134° |
| 2026-04-21 18:01 | 39.28361 | 24.45113 | 24919 ft | 451 kts | 134° |
| 2026-04-21 18:01 | 39.26255 | 24.48125 | 24925 ft | 451 kts | 135° |
| 2026-04-21 18:01 | 39.24151 | 24.51135 | 24922 ft | 452 kts | 134° |
| 2026-04-21 18:02 | 39.22059 | 24.54171 | 24922 ft | 453 kts | 134° |
| 2026-04-21 18:02 | 39.19957 | 24.57209 | 24922 ft | 454 kts | 135° |
| 2026-04-21 18:02 | 39.17832 | 24.60232 | 24920 ft | 454 kts | 135° |
| 2026-04-21 18:02 | 39.15715 | 24.63256 | 24920 ft | 455 kts | 134° |
| 2026-04-21 18:03 | 39.13608 | 24.66307 | 24916 ft | 455 kts | 134° |
| 2026-04-21 18:03 | 39.11491 | 24.69334 | 24918 ft | 455 kts | 135° |
| 2026-04-21 18:03 | 39.09354 | 24.72364 | 24917 ft | 456 kts | 135° |
| 2026-04-21 18:03 | 39.07258 | 24.75350 | 24921 ft | 456 kts | 134° |
| 2026-04-21 18:04 | 39.05142 | 24.78404 | 24920 ft | 455 kts | 134° |
| 2026-04-21 18:04 | 39.03023 | 24.81419 | 24918 ft | 453 kts | 135° |
| 2026-04-21 18:04 | 39.00901 | 24.84427 | 24918 ft | 453 kts | 135° |
| 2026-04-21 18:04 | 38.98782 | 24.87423 | 24918 ft | 452 kts | 135° |
| 2026-04-21 18:05 | 38.96665 | 24.90417 | 24920 ft | 451 kts | 135° |
| 2026-04-21 18:05 | 38.94557 | 24.93404 | 24918 ft | 450 kts | 135° |
| 2026-04-21 18:05 | 38.92471 | 24.96409 | 24921 ft | 450 kts | 134° |
| 2026-04-21 18:05 | 38.90408 | 24.99348 | 24921 ft | 449 kts | 135° |
| 2026-04-21 18:06 | 38.88311 | 25.02320 | 24871 ft | 449 kts | 135° |
| 2026-04-21 18:06 | 38.86214 | 25.05262 | 24535 ft | 443 kts | 135° |
| 2026-04-21 18:06 | 38.84136 | 25.08165 | 24050 ft | 439 kts | 135° |
| 2026-04-21 18:06 | 38.82088 | 25.11069 | 23597 ft | 437 kts | 134° |
| 2026-04-21 18:07 | 38.80067 | 25.13977 | 23058 ft | 434 kts | 134° |
| 2026-04-21 18:07 | 38.78048 | 25.16838 | 22515 ft | 431 kts | 135° |
| 2026-04-21 18:07 | 38.76034 | 25.19672 | 21986 ft | 428 kts | 135° |
| 2026-04-21 18:07 | 38.74031 | 25.22479 | 21462 ft | 424 kts | 135° |
| 2026-04-21 18:08 | 38.72072 | 25.25206 | 21004 ft | 420 kts | 135° |
| 2026-04-21 18:08 | 38.70116 | 25.27960 | 20550 ft | 416 kts | 134° |
| 2026-04-21 18:08 | 38.68193 | 25.30703 | 20098 ft | 412 kts | 134° |
| 2026-04-21 18:08 | 38.66284 | 25.33405 | 19657 ft | 407 kts | 135° |
| 2026-04-21 18:09 | 38.64379 | 25.36059 | 19223 ft | 403 kts | 135° |
| 2026-04-21 18:09 | 38.62484 | 25.38686 | 18764 ft | 399 kts | 135° |
| 2026-04-21 18:09 | 38.60623 | 25.41306 | 18310 ft | 396 kts | 134° |
| 2026-04-21 18:09 | 38.58777 | 25.43912 | 17800 ft | 392 kts | 134° |
| 2026-04-21 18:10 | 38.56949 | 25.46478 | 17268 ft | 389 kts | 135° |
| 2026-04-21 18:10 | 38.55118 | 25.49007 | 16754 ft | 385 kts | 135° |
| 2026-04-21 18:10 | 38.53304 | 25.51526 | 16286 ft | 385 kts | 134° |
| 2026-04-21 18:10 | 38.51509 | 25.54049 | 15832 ft | 382 kts | 134° |
| 2026-04-21 18:11 | 38.49737 | 25.56557 | 15369 ft | 377 kts | 134° |
| 2026-04-21 18:11 | 38.48001 | 25.58988 | 14935 ft | 372 kts | 135° |
| 2026-04-21 18:11 | 38.46251 | 25.61399 | 14491 ft | 369 kts | 135° |
| 2026-04-21 18:11 | 38.44521 | 25.63798 | 14064 ft | 366 kts | 134° |
| 2026-04-21 18:12 | 38.42795 | 25.66224 | 13586 ft | 363 kts | 134° |
| 2026-04-21 18:12 | 38.41123 | 25.68569 | 13090 ft | 361 kts | 134° |
| 2026-04-21 18:12 | 38.39421 | 25.70918 | 12593 ft | 359 kts | 134° |
| 2026-04-21 18:12 | 38.37735 | 25.73247 | 12103 ft | 355 kts | 134° |
| 2026-04-21 18:13 | 38.36083 | 25.75534 | 11619 ft | 346 kts | 134° |
| 2026-04-21 18:13 | 38.34476 | 25.77763 | 11165 ft | 337 kts | 134° |
| 2026-04-21 18:13 | 38.32913 | 25.79926 | 10744 ft | 324 kts | 134° |
| 2026-04-21 18:13 | 38.31425 | 25.81981 | 10375 ft | 309 kts | 134° |
| 2026-04-21 18:14 | 38.28595 | 25.85891 | 9605 ft | 294 kts | 134° |
| 2026-04-21 18:14 | 38.27210 | 25.87801 | 9207 ft | 292 kts | 132° |
| 2026-04-21 18:14 | 38.25988 | 25.89845 | 8885 ft | 289 kts | 127° |
| 2026-04-21 18:15 | 38.24764 | 25.91868 | 8525 ft | 287 kts | 129° |
| 2026-04-21 18:15 | 38.23526 | 25.93847 | 8170 ft | 285 kts | 128° |
| 2026-04-21 18:15 | 38.22413 | 25.95921 | 7817 ft | 283 kts | 121° |
| 2026-04-21 18:15 | 38.21418 | 25.98037 | 7474 ft | 280 kts | 123° |
| 2026-04-21 18:16 | 38.20334 | 26.00073 | 7189 ft | 276 kts | 126° |
| 2026-04-21 18:16 | 38.19275 | 26.02102 | 6909 ft | 273 kts | 123° |
| 2026-04-21 18:16 | 38.18265 | 26.04129 | 6664 ft | 270 kts | 122° |
| 2026-04-21 18:16 | 38.17651 | 26.06349 | 6375 ft | 267 kts | 92° |
| 2026-04-21 18:17 | 38.18015 | 26.08617 | 6078 ft | 263 kts | 61° |
| 2026-04-21 18:17 | 38.19202 | 26.10324 | 5799 ft | 257 kts | 31° |
| 2026-04-21 18:17 | 38.20837 | 26.11146 | 5506 ft | 252 kts | 13° |
| 2026-04-21 18:17 | 38.22513 | 26.11700 | 5172 ft | 252 kts | 12° |
| 2026-04-21 18:18 | 38.24186 | 26.12244 | 4876 ft | 241 kts | 13° |
| 2026-04-21 18:18 | 38.25742 | 26.12860 | 4628 ft | 227 kts | 18° |
| 2026-04-21 18:18 | 38.27190 | 26.13614 | 4326 ft | 225 kts | 23° |
| 2026-04-21 18:18 | 38.28560 | 26.14477 | 4094 ft | 212 kts | 26° |
| 2026-04-21 18:19 | 38.29827 | 26.15354 | 3754 ft | 204 kts | 27° |
| 2026-04-21 18:19 | 38.31055 | 26.16242 | 3316 ft | 204 kts | 28° |
| 2026-04-21 18:19 | 38.32300 | 26.17128 | 2863 ft | 204 kts | 26° |
| 2026-04-21 18:19 | 38.33555 | 26.17918 | 2548 ft | 197 kts | 23° |
| 2026-04-21 18:20 | 38.34761 | 26.18585 | 2331 ft | 180 kts | 21° |
| 2026-04-21 18:20 | 38.35880 | 26.19163 | 2093 ft | 168 kts | 19° |
| 2026-04-21 18:20 | 38.36952 | 26.19689 | 1842 ft | 162 kts | 18° |
| 2026-04-21 18:20 | 38.37963 | 26.20137 | 1709 ft | 149 kts | 17° |
| 2026-04-21 18:21 | 38.38959 | 26.20331 | 1492 ft | 143 kts | 345° |
| 2026-04-21 18:21 | 38.39774 | 26.19727 | 1359 ft | 138 kts | 307° |
| 2026-04-21 18:21 | 38.40117 | 26.18610 | 1156 ft | 137 kts | 264° |
| 2026-04-21 18:21 | 38.39741 | 26.17562 | 1048 ft | 128 kts | 225° |
| 2026-04-21 18:22 | 38.39175 | 26.16689 | 939 ft | 129 kts | 229° |
| 2026-04-21 18:22 | 38.38595 | 26.15798 | 785 ft | 131 kts | 226° |
| 2026-04-21 18:22 | 38.37905 | 26.15049 | 625 ft | 129 kts | 207° |
| 2026-04-21 18:22 | 38.37068 | 26.14670 | 465 ft | 129 kts | 192° |
| 2026-04-21 18:23 | 38.36179 | 26.14464 | 287 ft | 130 kts | 194° |
| 2026-04-21 18:23 | 38.35294 | 26.14265 | 103 ft | 130 kts | 193° |
| 2026-04-21 18:23 | 38.34447 | 26.14080 | 17 ft | 108 kts | 189° |
| 2026-04-21 18:23 | 38.33875 | 26.13959 | 16 ft | 52 kts | 189° |
| 2026-04-21 18:24 | 38.33676 | 26.13915 | 17 ft | 14 kts | 201° |
| 2026-04-21 18:24 | 38.33632 | 26.13906 | 17 ft | 6 kts | 57° |
| 2026-04-21 18:24 | 38.33690 | 26.13920 | 17 ft | 12 kts | 11° |
| 2026-04-21 18:24 | 38.33805 | 26.13946 | 16 ft | 18 kts | 8° |
| 2026-04-21 18:25 | 38.33926 | 26.13969 | 16 ft | 18 kts | 9° |
| 2026-04-21 18:25 | 38.34060 | 26.13998 | 15 ft | 22 kts | 9° |
| 2026-04-21 18:25 | 38.34224 | 26.14033 | 15 ft | 23 kts | 9° |
| 2026-04-21 18:25 | 38.34345 | 26.14071 | 17 ft | 11 kts | 47° |
| 2026-04-21 18:26 | 38.34384 | 26.14140 | 16 ft | 8 kts | 53° |
| 2026-04-21 18:26 | 38.34415 | 26.14196 | 17 ft | 7 kts | 48° |
| 2026-04-21 18:26 | 38.34451 | 26.14215 | 16 ft | 2 kts | 9° |
| 2026-04-21 18:26 | 38.34452 | 26.14215 | 17 ft | 0 kts | 9° |